createdAt,value
2023-01-13T06:06:54.049Z,91.34
2023-01-13T06:17:28.044Z,90.72
2023-01-13T06:21:01.995Z,91.32
2023-01-13T06:25:08.294Z,91.89
2023-01-13T06:46:51.675Z,91.16
2023-01-13T07:02:10.430Z,91.00
2023-01-13T07:11:52.787Z,92.50
2023-01-13T07:46:00.579Z,91.10
2023-01-13T07:50:07.099Z,90.65
2023-01-13T08:16:33.004Z,92.58
2023-01-13T08:26:15.352Z,91.13
2023-01-13T08:35:56.397Z,89.89
2023-01-13T08:51:17.074Z,92.29
2023-01-13T09:05:24.287Z,90.48
2023-01-13T09:32:31.196Z,91.13
2023-01-13T10:05:09.619Z,91.40
2023-01-13T10:14:55.154Z,91.65
2023-01-13T10:43:20.796Z,89.71
2023-01-13T10:59:40.791Z,88.37
2023-01-13T11:26:46.832Z,88.77
2023-01-13T11:36:32.728Z,88.30
2023-01-13T11:48:07.762Z,88.29
2023-01-13T11:51:29.340Z,88.09
2023-01-13T11:54:49.733Z,87.80
2023-01-13T11:58:12.976Z,87.71
2023-01-13T12:01:38.581Z,89.68
2023-01-13T12:04:58.641Z,89.88
2023-01-13T12:08:03.653Z,90.18
2023-01-13T12:11:15.084Z,90.71
2023-01-13T12:14:36.061Z,89.74
2023-01-13T12:17:44.539Z,90.38
2023-01-13T12:21:02.119Z,89.67
2023-01-13T12:24:19.100Z,90.09
2023-01-13T12:27:47.398Z,90.49
2023-01-13T12:31:01.371Z,91.21
2023-01-13T12:34:25.067Z,89.99
2023-01-13T12:38:02.374Z,90.25
2023-01-13T12:41:04.183Z,91.15
2023-01-13T12:44:17.639Z,91.34
2023-01-13T12:47:38.242Z,89.82
2023-01-13T12:50:42.849Z,90.46
2023-01-13T12:53:45.015Z,90.80
2023-01-13T12:56:48.052Z,89.42
2023-01-13T13:00:11.671Z,89.74
2023-01-13T13:03:36.616Z,89.90
2023-01-13T13:06:43.248Z,88.63
2023-01-13T13:09:53.310Z,88.76
2023-01-13T13:13:17.349Z,89.06
2023-01-13T13:16:29.542Z,89.83
2023-01-13T13:19:31.452Z,89.58
2023-01-13T13:22:44.598Z,88.88
2023-01-13T13:26:17.107Z,88.70
2023-01-13T13:29:40.022Z,88.75
2023-01-13T13:32:51.922Z,89.09
2023-01-13T13:36:11.891Z,89.06
2023-01-13T13:39:40.011Z,88.96
2023-01-13T13:43:12.973Z,89.84
2023-01-13T13:46:44.089Z,89.71
2023-01-13T14:04:26.117Z,88.95
2023-01-13T14:07:28.220Z,89.03
2023-01-13T14:10:35.305Z,89.12
2023-01-13T14:13:39.215Z,88.67
2023-01-13T14:16:41.369Z,88.86
2023-01-13T14:19:45.757Z,88.36
2023-01-13T14:22:49.128Z,89.69
2023-01-13T14:25:52.421Z,89.66
2023-01-13T14:28:56.692Z,89.77
2023-01-13T14:31:58.631Z,89.52
2023-01-13T14:35:00.676Z,88.62
2023-01-13T14:38:04.370Z,88.98
2023-01-13T14:41:22.123Z,88.64
2023-01-13T14:44:27.827Z,88.63
2023-01-13T15:14:33.757Z,87.90
2023-01-13T15:17:35.624Z,87.63
2023-01-13T15:20:39.365Z,87.39
2023-01-13T15:23:42.145Z,88.24
2023-01-13T15:26:44.041Z,87.75
2023-01-13T15:29:46.066Z,88.03
2023-01-13T15:32:48.341Z,88.60
2023-01-13T15:35:52.262Z,89.74
2023-01-13T15:38:55.140Z,89.26
2023-01-13T15:42:15.953Z,89.86
2023-01-13T15:45:36.203Z,89.24
2023-01-13T15:48:38.065Z,89.61
2023-01-13T15:51:40.523Z,89.97
2023-01-13T15:54:42.332Z,89.09
2023-01-13T15:57:50.206Z,88.43
2023-01-13T16:00:52.700Z,88.21
2023-01-13T16:03:56.484Z,87.58
2023-01-13T16:06:59.403Z,88.24
2023-01-13T16:10:03.515Z,87.57
2023-01-13T16:13:05.727Z,88.64
2023-01-13T16:16:28.008Z,88.34
2023-01-13T16:19:29.985Z,88.38
2023-01-13T16:22:31.859Z,87.92
2023-01-13T16:25:33.817Z,87.71
2023-01-13T16:28:35.930Z,87.13
2023-01-13T16:31:39.012Z,86.46
2023-01-13T16:34:41.537Z,86.24
2023-01-13T16:37:47.127Z,86.18
2023-01-13T16:41:04.700Z,86.55
2023-01-13T16:44:06.620Z,86.48
2023-01-13T16:47:14.995Z,86.25
2023-01-13T16:50:30.516Z,86.33
2023-01-13T16:53:32.381Z,86.73
2023-01-13T16:56:36.142Z,87.33
2023-01-13T16:59:38.261Z,86.83
2023-01-13T17:02:40.269Z,86.22
2023-01-13T17:05:43.693Z,86.38
2023-01-13T17:08:45.816Z,86.28
2023-01-13T17:11:47.868Z,85.99
2023-01-13T17:14:50.237Z,85.64
2023-01-13T17:17:52.934Z,85.86
2023-01-13T17:20:55.224Z,85.87
2023-01-13T17:23:57.823Z,85.76
2023-01-13T17:26:59.843Z,85.77
2023-01-13T17:30:01.997Z,85.41
2023-01-13T17:33:05.840Z,85.66
2023-01-13T17:36:07.870Z,85.51
2023-01-13T17:39:30.663Z,85.67
2023-01-13T17:42:32.589Z,85.49
2023-01-13T17:45:34.527Z,85.53
2023-01-13T17:48:36.565Z,85.55
2023-01-13T17:51:38.589Z,85.53
2023-01-13T17:54:43.056Z,85.77
2023-01-13T17:57:45.184Z,85.64
2023-01-13T18:00:47.404Z,85.67
2023-01-13T18:03:49.868Z,85.61
2023-01-13T18:06:51.810Z,85.63
2023-01-13T21:40:10.342Z,87.55
2023-01-13T21:43:33.936Z,88.45
2023-01-13T21:46:54.418Z,87.91
2023-01-13T21:49:56.269Z,87.32
2023-01-13T21:52:58.812Z,87.42
2023-01-13T21:56:00.685Z,87.34
2023-01-13T21:59:34.234Z,87.65
2023-01-13T22:02:36.625Z,87.69
2023-01-13T22:05:38.616Z,87.08
2023-01-13T22:08:40.541Z,86.66
2023-01-13T22:11:42.409Z,86.55
2023-01-13T22:14:44.449Z,86.58
2023-01-13T22:17:49.773Z,86.43
2023-01-13T22:20:51.824Z,86.37
2023-01-13T22:23:54.932Z,86.67
2023-01-13T22:26:56.868Z,86.55
2023-01-13T22:29:59.063Z,87.04
2023-01-13T22:33:00.936Z,88.08
2023-01-13T22:36:03.099Z,87.57
2023-01-13T22:39:04.980Z,87.06
2023-01-13T22:42:07.297Z,86.86
2023-01-13T22:45:13.993Z,86.90
2023-01-13T22:48:15.877Z,86.87
2023-01-13T22:51:22.784Z,86.78
2023-01-13T22:54:24.910Z,86.48
2023-01-13T22:57:35.518Z,86.87
2023-01-13T23:00:42.857Z,87.25
2023-01-13T23:03:47.826Z,87.92
2023-01-13T23:06:49.826Z,88.28
2023-01-13T23:09:51.785Z,87.71
2023-01-13T23:12:53.746Z,87.45
2023-01-13T23:15:55.752Z,88.97
2023-01-13T23:18:58.033Z,89.65
2023-01-13T23:21:59.920Z,89.08
2023-01-13T23:25:01.799Z,89.19
2023-01-13T23:28:03.931Z,89.20
2023-01-13T23:31:13.123Z,89.46
2023-01-13T23:34:15.232Z,88.98
2023-01-13T23:37:17.113Z,90.12
2023-01-13T23:40:19.876Z,89.67
2023-01-13T23:43:22.250Z,89.15
2023-01-13T23:46:25.129Z,89.98
2023-01-13T23:49:27.105Z,90.11
2023-01-13T23:52:29.085Z,89.08
2023-01-13T23:55:30.978Z,88.57
2023-01-13T23:58:34.141Z,89.38
